createdAt,value
2019-05-13T00:00:55.552Z,61.12
2019-05-13T00:01:56.003Z,61.15
2019-05-13T00:02:56.435Z,61.33
2019-05-13T00:03:56.861Z,61.25
2019-05-13T00:04:57.323Z,61.46
2019-05-13T00:05:57.751Z,61.46
2019-05-13T00:06:58.214Z,61.56
2019-05-13T00:07:58.650Z,61.56
2019-05-13T00:08:59.086Z,61.56
2019-05-13T00:09:59.518Z,61.46
2019-05-13T00:10:59.954Z,61.56
2019-05-13T00:12:00.409Z,61.59
2019-05-13T00:13:00.835Z,61.69
2019-05-13T00:14:01.265Z,61.49
2019-05-13T00:15:03.743Z,61.59
2019-05-13T00:16:04.303Z,61.80
2019-05-13T00:17:04.762Z,61.80
2019-05-13T00:18:05.191Z,61.31
2019-05-13T00:19:05.619Z,61.69
2019-05-13T00:20:14.318Z,61.41
2019-05-13T00:21:14.821Z,61.52
2019-05-13T00:22:15.272Z,61.72
2019-05-13T00:23:15.715Z,61.52
2019-05-13T00:24:16.149Z,61.61
2019-05-13T00:25:16.581Z,61.41
2019-05-13T00:26:17.015Z,61.93
2019-05-13T00:27:17.457Z,61.54
2019-05-13T00:28:17.884Z,61.96
2019-05-13T00:29:18.310Z,62.06
2019-05-13T00:30:19.740Z,62.03
2019-05-13T00:31:20.179Z,62.26
2019-05-13T00:32:20.631Z,62.26
2019-05-13T00:33:21.062Z,61.85
2019-05-13T00:34:21.497Z,62.06
2019-05-13T00:35:23.329Z,61.75
2019-05-13T00:36:24.868Z,61.98
2019-05-13T00:37:25.313Z,62.08
2019-05-13T00:38:25.746Z,62.19
2019-05-13T00:39:26.189Z,62.60
2019-05-13T00:40:26.620Z,62.92
2019-05-13T00:41:27.042Z,62.92
2019-05-13T00:42:27.493Z,62.29
2019-05-13T00:43:27.915Z,62.50
2019-05-13T00:44:28.347Z,62.71
2019-05-13T00:45:28.783Z,62.40
2019-05-13T00:46:29.219Z,62.40
2019-05-13T00:47:29.673Z,62.50
2019-05-13T00:48:30.120Z,62.50
2019-05-13T00:49:30.560Z,62.50
2019-05-13T00:50:33.062Z,62.50
2019-05-13T00:51:34.075Z,62.40
2019-05-13T00:52:34.518Z,62.50
2019-05-13T00:53:35.460Z,62.71
2019-05-13T00:54:35.975Z,62.71
2019-05-13T00:55:36.401Z,62.92
2019-05-13T00:56:36.828Z,62.81
2019-05-13T00:57:37.266Z,62.71
2019-05-13T00:58:37.708Z,62.81
2019-05-13T00:59:38.137Z,63.01
2019-05-13T01:00:38.576Z,63.12
2019-05-13T01:01:39.012Z,63.12
2019-05-13T01:02:39.461Z,63.53
2019-05-13T01:03:39.912Z,63.64
2019-05-13T01:04:40.356Z,63.64
2019-05-13T01:05:40.781Z,62.92
2019-05-13T01:06:43.357Z,63.01
2019-05-13T01:07:44.636Z,63.01
2019-05-13T01:08:45.190Z,63.01
2019-05-13T01:09:45.616Z,62.92
2019-05-13T01:10:47.056Z,62.92
2019-05-13T01:11:47.496Z,63.12
2019-05-13T01:12:47.961Z,63.53
2019-05-13T01:13:48.394Z,63.12
2019-05-13T01:14:48.858Z,63.01
2019-05-13T01:15:49.285Z,63.04
2019-05-13T01:16:49.733Z,63.25
2019-05-13T01:17:50.178Z,63.53
2019-05-13T01:18:50.613Z,63.67
2019-05-13T01:19:51.045Z,63.77
2019-05-13T01:20:53.650Z,63.56
2019-05-13T01:21:54.339Z,63.67
2019-05-13T01:22:54.806Z,63.67
2019-05-13T01:23:55.237Z,63.56
2019-05-13T01:24:55.682Z,63.87
2019-05-13T01:25:56.112Z,63.87
2019-05-13T01:26:56.551Z,63.67
2019-05-13T01:27:57.001Z,63.49
2019-05-13T01:28:58.431Z,63.49
2019-05-13T01:29:58.867Z,63.49
2019-05-13T01:30:59.304Z,63.49
2019-05-13T01:31:59.729Z,63.69
2019-05-13T01:33:00.177Z,64.11
2019-05-13T01:34:00.601Z,63.90
2019-05-13T01:35:01.035Z,64.00
2019-05-13T01:36:01.483Z,63.90
2019-05-13T01:37:04.173Z,64.14
2019-05-13T01:38:04.955Z,63.82
2019-05-13T01:39:05.396Z,63.72
2019-05-13T01:40:05.813Z,63.93
2019-05-13T01:41:07.262Z,63.82
2019-05-13T01:42:07.689Z,63.82
2019-05-13T01:43:08.149Z,64.03
2019-05-13T01:44:08.573Z,63.93
2019-05-13T01:45:09.017Z,64.14
2019-05-13T01:46:09.452Z,64.03
2019-05-13T01:47:09.881Z,64.34
2019-05-13T01:48:10.326Z,64.45
2019-05-13T01:49:10.786Z,64.34
2019-05-13T01:50:14.021Z,64.14
2019-05-13T01:51:14.841Z,64.55
2019-05-13T01:52:15.268Z,64.65
2019-05-13T01:53:15.734Z,64.34
2019-05-13T01:54:16.177Z,64.34
2019-05-13T01:55:16.618Z,64.86
2019-05-13T01:56:17.044Z,64.06
2019-05-13T01:57:17.495Z,64.76
2019-05-13T01:58:17.949Z,64.55
2019-05-13T01:59:18.381Z,64.65
2019-05-13T02:00:18.802Z,64.48
2019-05-13T02:01:19.237Z,64.68
2019-05-13T02:02:19.675Z,64.58
2019-05-13T02:03:20.140Z,64.68
2019-05-13T02:04:20.563Z,64.37
2019-05-13T02:05:21.008Z,64.96
2019-05-13T02:06:21.443Z,64.48
2019-05-13T02:07:21.874Z,64.78
2019-05-13T02:08:24.347Z,64.89
2019-05-13T02:09:25.027Z,64.89
2019-05-13T02:10:25.464Z,64.89
2019-05-13T02:11:26.912Z,64.68
2019-05-13T02:12:27.347Z,64.68
2019-05-13T02:13:29.846Z,65.02
2019-05-13T02:14:30.279Z,64.58
2019-05-13T02:15:30.716Z,64.61
2019-05-13T02:16:33.607Z,65.33
2019-05-13T02:17:36.304Z,65.23
2019-05-13T02:18:36.752Z,65.30
2019-05-13T02:19:54.165Z,65.44
2019-05-13T02:20:55.688Z,64.92
2019-05-13T02:21:57.472Z,65.02
2019-05-13T02:22:57.899Z,64.81
2019-05-13T02:23:58.344Z,64.92
2019-05-13T02:24:58.772Z,65.02
2019-05-13T02:26:07.967Z,65.12
2019-05-13T02:27:08.484Z,65.02
2019-05-13T02:28:10.757Z,65.33
2019-05-13T02:29:11.275Z,65.54
2019-05-13T02:30:18.462Z,65.33
2019-05-13T02:31:32.038Z,65.64
2019-05-13T02:32:25.299Z,65.64
2019-05-13T02:33:26.758Z,65.23
2019-05-13T02:34:27.198Z,65.12
2019-05-13T02:35:34.473Z,65.16
2019-05-13T02:36:34.900Z,65.57
2019-05-13T02:37:35.347Z,65.57
2019-05-13T02:38:36.048Z,65.54
2019-05-13T02:39:57.526Z,65.33
2019-05-13T02:40:57.951Z,65.12
2019-05-13T02:42:14.964Z,65.64
2019-05-13T02:43:15.393Z,65.57
2019-05-13T02:44:16.854Z,65.47
2019-05-13T02:45:17.296Z,65.29
2019-05-13T02:46:22.449Z,65.26
2019-05-13T02:47:23.095Z,65.05
2019-05-13T02:48:24.320Z,65.39
2019-05-13T02:49:24.994Z,65.08
2019-05-13T02:50:43.875Z,65.47
2019-05-13T02:51:44.674Z,64.98
2019-05-13T02:52:45.125Z,65.29
2019-05-13T02:53:45.575Z,65.91
2019-05-13T02:54:54.966Z,65.60
2019-05-13T02:55:55.407Z,65.70
2019-05-13T02:56:55.848Z,65.84
2019-05-13T02:57:56.279Z,65.70
2019-05-13T02:58:56.727Z,66.02
2019-05-13T02:59:57.165Z,66.22
2019-05-13T03:00:57.609Z,66.22
2019-05-13T03:01:58.058Z,66.22
2019-05-13T03:03:05.490Z,65.81
2019-05-13T03:04:05.943Z,65.94
2019-05-13T03:05:06.470Z,66.02
2019-05-13T03:06:06.913Z,65.73
2019-05-13T03:07:07.348Z,66.15
2019-05-13T03:08:07.776Z,66.25
2019-05-13T03:09:24.489Z,66.15
2019-05-13T03:10:24.929Z,66.15
2019-05-13T03:11:33.095Z,66.15
2019-05-13T03:12:33.828Z,66.35
2019-05-13T03:13:52.922Z,66.05
2019-05-13T03:14:53.722Z,66.15
2019-05-13T03:15:54.189Z,66.25
2019-05-13T03:16:54.625Z,66.25
2019-05-13T03:19:13.266Z,66.15
2019-05-13T03:20:22.831Z,65.97
2019-05-13T03:21:23.753Z,66.05
2019-05-13T03:22:25.190Z,65.73
2019-05-13T03:23:25.632Z,65.87
2019-05-13T03:24:28.086Z,65.97
2019-05-13T03:25:28.608Z,65.97
2019-05-13T03:26:37.954Z,66.28
2019-05-13T03:27:38.390Z,65.97
2019-05-13T03:28:38.827Z,65.77
2019-05-13T03:29:39.292Z,66.59
2019-05-13T03:30:46.609Z,65.56
2019-05-13T03:31:47.360Z,66.59
2019-05-13T03:32:55.221Z,66.59
2019-05-13T03:33:56.444Z,66.59
2019-05-13T03:34:57.387Z,66.59
2019-05-13T03:35:57.831Z,66.38
2019-05-13T03:36:58.391Z,66.52
2019-05-13T03:37:58.839Z,66.49
2019-05-13T03:39:09.555Z,66.62
2019-05-13T03:40:05.889Z,66.80
2019-05-13T03:41:06.332Z,66.52
2019-05-13T03:42:06.773Z,66.62
2019-05-13T03:43:07.225Z,66.72
2019-05-13T03:44:07.690Z,66.90
2019-05-13T03:45:09.135Z,67.00
2019-05-13T03:46:12.193Z,66.62
2019-05-13T03:47:13.764Z,67.14
2019-05-13T03:48:14.194Z,66.83
2019-05-13T03:49:14.657Z,67.11
2019-05-13T03:50:15.095Z,67.00
2019-05-13T03:51:15.546Z,67.00
2019-05-13T03:52:15.983Z,67.11
2019-05-13T03:53:16.432Z,67.03
2019-05-13T03:54:16.896Z,67.00
2019-05-13T03:55:17.332Z,67.11
2019-05-13T03:56:17.771Z,66.90
2019-05-13T03:57:18.205Z,67.00
2019-05-13T03:58:18.699Z,67.03
2019-05-13T03:59:22.547Z,66.59
2019-05-13T04:00:23.837Z,67.00
2019-05-13T04:01:24.309Z,66.90
2019-05-13T04:02:24.739Z,66.90
2019-05-13T04:03:25.184Z,66.93
2019-05-13T04:04:25.636Z,66.69
2019-05-13T04:05:28.089Z,66.69
2019-05-13T04:06:28.523Z,66.69
2019-05-13T04:07:28.971Z,66.90
2019-05-13T04:08:30.053Z,66.93
2019-05-13T04:09:36.288Z,67.00
2019-05-13T04:10:37.008Z,66.93
2019-05-13T04:11:37.457Z,66.93
2019-05-13T04:12:37.898Z,66.59
2019-05-13T04:13:38.352Z,67.00
2019-05-13T04:14:38.818Z,67.00
2019-05-13T04:15:42.556Z,66.62
2019-05-13T04:16:43.326Z,67.21
2019-05-13T04:17:44.759Z,67.21
2019-05-13T04:18:45.206Z,67.11
2019-05-13T04:19:45.678Z,67.11
2019-05-13T04:20:46.104Z,67.11
2019-05-13T04:21:46.543Z,67.11
2019-05-13T04:22:46.971Z,67.00
2019-05-13T04:23:52.780Z,66.80
2019-05-13T04:24:53.621Z,66.69
2019-05-13T04:25:55.069Z,67.11
2019-05-13T04:26:55.502Z,66.87
2019-05-13T04:27:55.939Z,66.59
2019-05-13T04:28:56.367Z,66.97
2019-05-13T04:29:56.835Z,66.77
2019-05-13T04:30:57.286Z,66.25
2019-05-13T04:32:04.442Z,66.25
2019-05-13T04:33:04.956Z,66.46
2019-05-13T04:34:05.417Z,66.56
2019-05-13T04:35:05.871Z,65.50
2019-05-13T04:36:06.331Z,65.60
2019-05-13T04:37:06.768Z,65.81
2019-05-13T04:38:10.235Z,65.60
2019-05-13T04:39:13.409Z,65.91
2019-05-13T04:40:13.885Z,65.91
2019-05-13T04:41:14.315Z,66.12
2019-05-13T04:42:14.774Z,66.02
2019-05-13T04:43:15.208Z,66.12
2019-05-13T04:44:15.654Z,65.88
2019-05-13T04:45:16.113Z,65.47
2019-05-13T04:46:16.562Z,66.29
2019-05-13T04:47:17.006Z,65.67
2019-05-13T04:48:17.452Z,65.99
2019-05-13T04:49:17.876Z,65.88
2019-05-13T04:50:22.172Z,65.85
2019-05-13T04:51:23.273Z,66.57
2019-05-13T04:52:23.707Z,66.36
2019-05-13T04:53:24.138Z,66.64
2019-05-13T04:54:24.588Z,66.85
2019-05-13T04:55:25.043Z,67.37
2019-05-13T04:56:25.480Z,67.13
2019-05-13T04:57:25.926Z,67.54
2019-05-13T04:58:28.469Z,67.37
2019-05-13T04:59:28.915Z,67.54
2019-05-13T05:00:32.136Z,67.03
2019-05-13T05:01:40.356Z,67.44
2019-05-13T05:02:48.484Z,67.51
2019-05-13T05:03:46.512Z,67.10
2019-05-13T05:04:47.055Z,66.79
2019-05-13T05:05:47.509Z,67.00
2019-05-13T05:06:47.959Z,66.89
2019-05-13T05:07:48.423Z,66.89
2019-05-13T05:08:48.946Z,66.69
2019-05-13T05:10:11.644Z,66.97
2019-05-13T05:10:55.822Z,66.38
2019-05-13T05:11:58.454Z,66.66
2019-05-13T05:12:58.891Z,66.45
2019-05-13T05:13:59.390Z,66.55
2019-05-13T05:15:02.635Z,67.07
2019-05-13T05:16:03.461Z,67.79
2019-05-13T05:17:03.903Z,67.58
2019-05-13T05:18:04.435Z,68.27
2019-05-13T05:19:04.871Z,67.97
2019-05-13T05:20:07.360Z,68.27
2019-05-13T05:21:07.807Z,68.90
2019-05-13T05:23:24.448Z,68.96
2019-05-13T05:24:25.000Z,69.17
2019-05-13T05:25:25.527Z,68.45
2019-05-13T05:26:26.032Z,68.66
2019-05-13T05:27:26.455Z,68.45
2019-05-13T05:28:26.965Z,68.83
2019-05-13T05:29:27.391Z,69.14
2019-05-13T05:30:27.936Z,69.24
2019-05-13T05:31:28.364Z,69.04
2019-05-13T05:32:32.334Z,69.24
2019-05-13T05:33:34.491Z,69.14
2019-05-13T05:34:34.993Z,69.14
2019-05-13T05:35:35.477Z,68.59
2019-05-13T05:36:42.490Z,68.59
2019-05-13T05:37:42.923Z,69.11
2019-05-13T05:38:43.450Z,69.11
2019-05-13T05:39:43.904Z,68.77
2019-05-13T05:40:48.486Z,70.00
2019-05-13T05:41:51.336Z,69.49
2019-05-13T05:42:51.950Z,69.04
2019-05-13T05:43:52.379Z,69.18
2019-05-13T05:45:02.797Z,69.25
2019-05-13T05:46:03.436Z,69.25
2019-05-13T05:47:04.982Z,69.46
2019-05-13T05:48:05.422Z,69.15
2019-05-13T05:49:05.916Z,69.46
2019-05-13T05:50:06.352Z,69.87
2019-05-13T05:51:07.916Z,70.35
2019-05-13T05:52:08.346Z,69.73
2019-05-13T05:53:11.175Z,70.14
2019-05-13T05:54:14.463Z,70.14
2019-05-13T05:55:15.381Z,70.04
2019-05-13T05:56:15.834Z,70.35
2019-05-13T05:57:18.379Z,70.04
2019-05-13T05:58:18.808Z,70.21
2019-05-13T05:59:21.801Z,70.11
2019-05-13T06:00:22.413Z,70.01
2019-05-13T06:01:26.006Z,69.29
2019-05-13T06:02:26.452Z,69.36
2019-05-13T06:03:26.901Z,69.26
2019-05-13T06:04:27.460Z,69.56
2019-05-13T06:05:28.976Z,69.32
2019-05-13T06:06:29.446Z,69.53
2019-05-13T06:07:36.458Z,68.81
2019-05-13T06:08:36.892Z,68.95
2019-05-13T06:09:45.992Z,68.91
2019-05-13T06:10:50.315Z,68.91
2019-05-13T06:12:01.802Z,69.02
2019-05-13T06:13:02.379Z,69.02
2019-05-13T06:14:03.823Z,68.99
2019-05-13T06:15:04.330Z,68.88
2019-05-13T06:16:08.931Z,68.48
2019-05-13T06:17:11.456Z,68.48
2019-05-13T06:18:18.903Z,68.99
2019-05-13T06:19:19.335Z,68.24
2019-05-13T06:20:21.802Z,67.52
2019-05-13T06:21:22.411Z,67.62
2019-05-13T06:22:24.863Z,67.72
2019-05-13T06:23:25.331Z,67.21
2019-05-13T06:24:26.900Z,67.21
2019-05-13T06:25:27.444Z,67.21
2019-05-13T06:26:31.429Z,67.38
2019-05-13T06:27:31.973Z,67.21
2019-05-13T06:28:33.484Z,67.00
2019-05-13T06:29:33.910Z,66.97
2019-05-13T06:30:43.026Z,66.56
2019-05-13T06:31:43.480Z,66.67
2019-05-13T06:33:58.898Z,66.67
2019-05-13T06:35:01.835Z,67.08
2019-05-13T06:36:11.983Z,66.87
2019-05-13T06:37:12.461Z,66.63
2019-05-13T06:38:13.023Z,67.14
2019-05-13T06:39:13.486Z,66.74
2019-05-13T06:40:21.531Z,66.60
2019-05-13T06:41:22.123Z,66.50
2019-05-13T06:42:29.423Z,65.07
2019-05-13T06:43:31.485Z,65.17
2019-05-13T06:44:32.115Z,65.37
2019-05-13T06:45:32.553Z,65.48
2019-05-13T06:46:35.021Z,64.97
2019-05-13T06:47:36.228Z,65.45
2019-05-13T06:48:37.864Z,65.48
2019-05-13T06:49:38.293Z,65.24
2019-05-13T06:50:41.381Z,65.55
2019-05-13T06:51:42.101Z,65.34
2019-05-13T06:52:51.415Z,65.37
2019-05-13T06:53:51.974Z,65.24
2019-05-13T06:54:53.469Z,64.53
2019-05-13T06:55:53.922Z,64.62
2019-05-13T06:56:56.488Z,64.73
2019-05-13T06:57:56.949Z,64.53
2019-05-13T06:59:04.968Z,64.73
2019-05-13T07:00:05.424Z,64.62
2019-05-13T07:01:07.960Z,64.90
2019-05-13T07:02:08.399Z,64.62
2019-05-13T07:03:12.608Z,64.80
2019-05-13T07:04:13.421Z,64.60
2019-05-13T07:05:14.977Z,64.60
2019-05-13T07:06:15.406Z,64.50
2019-05-13T07:07:17.966Z,64.47
2019-05-13T07:08:18.388Z,64.06
2019-05-13T07:09:25.426Z,64.26
2019-05-13T07:10:28.008Z,63.31
2019-05-13T07:11:28.661Z,62.83
2019-05-13T07:12:31.564Z,62.80
2019-05-13T07:13:32.423Z,63.10
2019-05-13T07:14:32.937Z,62.90
2019-05-13T07:15:33.382Z,63.10
2019-05-13T07:16:33.975Z,61.88
2019-05-13T07:17:34.483Z,61.95
2019-05-13T07:18:34.938Z,61.75
2019-05-13T07:19:35.365Z,62.05
2019-05-13T07:20:35.799Z,62.36
2019-05-13T07:21:36.251Z,61.85
2019-05-13T07:22:36.812Z,62.26
2019-05-13T07:23:37.255Z,61.44
2019-05-13T07:24:37.681Z,61.03
2019-05-13T07:25:38.116Z,61.54
2019-05-13T07:26:38.621Z,61.75
2019-05-13T07:27:39.079Z,61.54
2019-05-13T07:28:39.517Z,61.51
2019-05-13T07:29:42.185Z,61.51
2019-05-13T07:30:42.841Z,61.00
2019-05-13T07:31:43.421Z,61.00
2019-05-13T07:32:43.965Z,61.10
2019-05-13T07:33:44.403Z,61.18
2019-05-13T07:34:44.886Z,60.87
2019-05-13T07:35:46.240Z,61.10
2019-05-13T07:36:46.978Z,60.67
2019-05-13T07:37:47.483Z,60.67
2019-05-13T07:38:47.914Z,61.08
2019-05-13T07:39:48.396Z,60.87
2019-05-13T07:40:48.863Z,60.87
2019-05-13T07:41:51.911Z,61.08
2019-05-13T07:42:52.621Z,60.85
2019-05-13T07:43:53.109Z,60.94
2019-05-13T07:44:53.763Z,60.74
2019-05-13T07:45:54.215Z,60.33
2019-05-13T07:46:55.754Z,59.82
2019-05-13T07:47:56.202Z,59.49
2019-05-13T07:48:56.630Z,60.10
2019-05-13T07:49:57.881Z,60.10
2019-05-13T07:51:00.708Z,59.59
2019-05-13T07:52:04.754Z,59.77
2019-05-13T07:53:05.191Z,59.16
2019-05-13T07:54:05.629Z,59.16
2019-05-13T07:55:06.072Z,59.66
2019-05-13T07:56:06.509Z,59.05
2019-05-13T07:57:06.962Z,59.56
2019-05-13T07:58:07.389Z,59.36
2019-05-13T07:59:07.825Z,59.03
2019-05-13T08:00:08.291Z,58.82
2019-05-13T08:01:12.005Z,59.33
2019-05-13T08:02:13.880Z,58.82
2019-05-13T08:03:14.323Z,58.82
2019-05-13T08:04:22.534Z,58.21
2019-05-13T08:05:22.419Z,58.31
2019-05-13T08:06:22.990Z,58.28
2019-05-13T08:07:23.537Z,57.98
2019-05-13T08:08:23.972Z,57.78
2019-05-13T08:09:24.399Z,57.78
2019-05-13T08:10:24.837Z,58.18
2019-05-13T08:11:25.269Z,57.98
2019-05-13T08:12:25.724Z,57.98
2019-05-13T08:13:26.145Z,57.78
2019-05-13T08:14:26.583Z,57.67
2019-05-13T08:15:27.020Z,57.65
2019-05-13T08:16:27.552Z,57.85
2019-05-13T08:17:27.999Z,57.65
2019-05-13T08:18:28.437Z,58.15
2019-05-13T08:19:28.873Z,56.93
2019-05-13T08:20:29.309Z,55.81
2019-05-13T08:21:32.067Z,56.52
2019-05-13T08:22:32.860Z,56.73
2019-05-13T08:23:33.329Z,55.61
2019-05-13T08:24:33.853Z,55.89
2019-05-13T08:25:34.284Z,55.10
2019-05-13T08:26:38.111Z,55.07
2019-05-13T08:27:42.116Z,53.85
2019-05-13T08:28:56.919Z,54.57
2019-05-13T08:29:52.204Z,54.77
2019-05-13T08:30:52.750Z,54.77
2019-05-13T08:31:53.209Z,53.63
2019-05-13T08:32:53.721Z,53.63
2019-05-13T08:33:54.169Z,54.03
2019-05-13T08:35:01.712Z,53.42
2019-05-13T08:36:01.631Z,54.74
2019-05-13T08:37:03.250Z,54.77
2019-05-13T08:38:03.876Z,54.64
2019-05-13T08:39:04.362Z,55.07
2019-05-13T08:40:04.791Z,55.25
2019-05-13T08:41:09.848Z,55.15
2019-05-13T08:42:16.826Z,55.05
2019-05-13T08:43:18.258Z,55.05
2019-05-13T08:44:21.470Z,54.64
2019-05-13T08:45:22.437Z,54.31
2019-05-13T08:46:22.924Z,54.85
2019-05-13T08:47:23.438Z,55.05
2019-05-13T08:48:23.886Z,55.05
2019-05-13T08:49:24.372Z,54.94
2019-05-13T08:50:24.791Z,54.94
2019-05-13T08:51:25.306Z,55.05
2019-05-13T08:52:25.751Z,52.50
2019-05-13T08:53:26.284Z,50.47
2019-05-13T08:54:26.711Z,51.08
2019-05-13T08:55:28.199Z,51.36
2019-05-13T08:56:28.671Z,50.16
2019-05-13T08:57:31.404Z,50.85
2019-05-13T08:58:32.312Z,51.97
2019-05-13T08:59:32.848Z,51.67
2019-05-13T09:00:33.278Z,51.67
2019-05-13T09:01:33.783Z,50.52
2019-05-13T09:02:34.214Z,50.32
2019-05-13T09:03:34.742Z,51.44
2019-05-13T09:04:35.254Z,51.44
2019-05-13T09:05:35.745Z,50.52
2019-05-13T09:06:36.190Z,49.51
2019-05-13T09:07:36.681Z,48.49
2019-05-13T09:08:37.154Z,48.57
2019-05-13T09:09:37.619Z,48.87
2019-05-13T09:10:38.053Z,48.67
2019-05-13T09:11:38.551Z,48.87
2019-05-13T09:12:41.040Z,49.69
2019-05-13T09:13:43.719Z,49.48
2019-05-13T09:14:44.107Z,48.67
2019-05-13T09:15:44.619Z,47.74
2019-05-13T09:16:45.211Z,48.47
2019-05-13T09:17:45.687Z,48.75
2019-05-13T09:18:46.141Z,48.85
2019-05-13T09:19:46.581Z,48.87
2019-05-13T09:20:47.009Z,48.65
2019-05-13T09:21:47.501Z,47.83
2019-05-13T09:22:47.960Z,47.63
2019-05-13T09:23:48.408Z,46.29
2019-05-13T09:24:48.887Z,46.09
2019-05-13T09:25:49.318Z,46.70
2019-05-13T09:26:49.743Z,46.29
2019-05-13T09:27:51.351Z,47.41
2019-05-13T09:28:52.238Z,48.02
2019-05-13T09:29:52.771Z,47.30
2019-05-13T09:30:53.475Z,47.41
2019-05-13T09:31:53.974Z,45.90
2019-05-13T09:32:54.402Z,44.67
2019-05-13T09:33:54.863Z,43.04
2019-05-13T09:34:55.295Z,42.33
2019-05-13T09:35:55.822Z,43.32
2019-05-13T09:36:56.365Z,44.04
2019-05-13T09:37:56.802Z,44.34
2019-05-13T09:38:57.254Z,42.92
2019-05-13T09:39:57.683Z,42.49
2019-05-13T09:40:58.110Z,42.80
2019-05-13T09:41:58.630Z,42.80
2019-05-13T09:42:59.065Z,41.28
2019-05-13T09:44:01.825Z,40.77
2019-05-13T09:45:02.577Z,40.56
2019-05-13T09:46:03.018Z,40.97
2019-05-13T09:47:03.441Z,41.78
2019-05-13T09:48:03.888Z,39.75
2019-05-13T09:49:15.746Z,41.78
2019-05-13T09:50:27.589Z,40.67
2019-05-13T09:51:17.276Z,42.19
2019-05-13T09:52:17.738Z,42.72
2019-05-13T09:53:18.167Z,43.00
2019-05-13T09:54:18.624Z,43.30
2019-05-13T09:55:26.397Z,41.48
2019-05-13T09:56:25.465Z,40.77
2019-05-13T09:57:25.894Z,40.67
2019-05-13T09:58:29.752Z,39.33
2019-05-13T09:59:33.851Z,38.72
2019-05-13T10:00:34.287Z,38.30
2019-05-13T10:01:34.736Z,38.82
2019-05-13T10:02:35.213Z,39.53
2019-05-13T10:03:51.963Z,40.43
2019-05-13T10:04:43.549Z,40.02
2019-05-13T10:05:44.397Z,37.71
2019-05-13T10:06:45.914Z,36.37
2019-05-13T10:07:46.345Z,36.69
2019-05-13T10:08:46.827Z,37.38
2019-05-13T10:09:48.318Z,37.89
2019-05-13T10:10:49.119Z,39.11
2019-05-13T10:11:51.834Z,39.23
2019-05-13T10:13:08.274Z,39.21
2019-05-13T10:13:58.856Z,39.73
2019-05-13T10:15:01.709Z,40.43
2019-05-13T10:16:02.642Z,41.16
2019-05-13T10:17:05.956Z,40.14
2019-05-13T10:18:07.049Z,40.75
2019-05-13T10:19:07.538Z,41.58
2019-05-13T10:20:08.025Z,42.39
2019-05-13T10:21:08.462Z,42.39
2019-05-13T10:22:08.936Z,41.48
2019-05-13T10:23:12.338Z,40.04
2019-05-13T10:24:13.109Z,39.73
2019-05-13T10:25:13.552Z,40.24
2019-05-13T10:26:14.703Z,40.55
2019-05-13T10:27:18.930Z,40.95
2019-05-13T10:28:21.922Z,40.34
2019-05-13T10:29:22.701Z,40.14
2019-05-13T10:30:23.180Z,40.75
2019-05-13T10:31:23.611Z,41.58
2019-05-13T10:32:24.052Z,41.38
2019-05-13T10:33:24.499Z,42.39
2019-05-13T10:34:24.949Z,42.09
2019-05-13T10:35:25.571Z,40.34
2019-05-13T10:36:26.026Z,39.43
2019-05-13T10:37:26.488Z,36.90
2019-05-13T10:38:27.801Z,35.78
2019-05-13T10:39:28.706Z,36.98
2019-05-13T10:40:29.275Z,36.27
2019-05-13T10:41:32.993Z,35.46
2019-05-13T10:42:33.908Z,34.25
2019-05-13T10:43:40.215Z,34.84
2019-05-13T10:44:42.268Z,35.35
2019-05-13T10:45:42.996Z,34.53
2019-05-13T10:46:43.437Z,34.43
2019-05-13T10:47:43.885Z,34.52
2019-05-13T10:48:44.342Z,34.84
2019-05-13T10:49:44.879Z,35.75
2019-05-13T10:50:45.307Z,36.56
2019-05-13T10:51:45.761Z,37.37
2019-05-13T10:52:46.198Z,38.59
2019-05-13T10:53:46.890Z,38.30
2019-05-13T10:54:47.449Z,39.11
2019-05-13T10:55:47.892Z,38.91
2019-05-13T10:56:48.448Z,38.30
2019-05-13T10:57:50.934Z,37.49
2019-05-13T10:58:53.430Z,38.70
2019-05-13T10:59:59.513Z,37.79
2019-05-13T11:01:02.718Z,36.88
2019-05-13T11:02:03.580Z,35.14
2019-05-13T11:03:04.034Z,34.74
2019-05-13T11:04:04.474Z,35.13
2019-05-13T11:05:05.032Z,34.31
2019-05-13T11:06:05.460Z,34.52
2019-05-13T11:07:05.935Z,35.33
2019-05-13T11:08:06.406Z,35.01
2019-05-13T11:09:08.906Z,35.72
2019-05-13T11:10:09.534Z,35.61
2019-05-13T11:11:10.215Z,35.41
2019-05-13T11:12:13.353Z,35.21
2019-05-13T11:13:14.116Z,35.11
2019-05-13T11:14:16.626Z,34.28
2019-05-13T11:15:17.088Z,35.21
2019-05-13T11:16:17.565Z,33.49
2019-05-13T11:17:23.223Z,33.07
2019-05-13T11:18:24.676Z,32.67
2019-05-13T11:19:25.331Z,31.76
2019-05-13T11:20:25.820Z,33.07
2019-05-13T11:21:26.503Z,33.98
2019-05-13T11:22:26.940Z,34.89
2019-05-13T11:23:27.439Z,34.48
2019-05-13T11:24:27.900Z,34.69
2019-05-13T11:25:28.478Z,34.79
2019-05-13T11:26:28.912Z,35.39
2019-05-13T11:27:32.190Z,34.38
2019-05-13T11:28:32.862Z,33.97
2019-05-13T11:29:33.490Z,34.67
2019-05-13T11:30:33.926Z,34.88
2019-05-13T11:31:34.665Z,35.30
2019-05-13T11:32:35.105Z,36.51
2019-05-13T11:33:35.553Z,36.30
2019-05-13T11:34:36.035Z,36.71
2019-05-13T11:35:36.554Z,36.81
2019-05-13T11:36:37.207Z,35.60
2019-05-13T11:37:38.062Z,34.99
2019-05-13T11:38:38.530Z,35.39
2019-05-13T11:39:44.640Z,35.60
2019-05-13T11:40:45.244Z,35.08
2019-05-13T11:42:08.822Z,33.36
2019-05-13T11:43:12.127Z,32.93
2019-05-13T11:44:22.771Z,34.05
2019-05-13T11:45:23.448Z,34.35
2019-05-13T11:46:23.979Z,35.17
2019-05-13T11:47:24.417Z,34.57
2019-05-13T11:48:24.918Z,35.17
2019-05-13T11:49:25.357Z,35.38
2019-05-13T11:50:27.028Z,36.81
2019-05-13T11:51:27.653Z,36.41
2019-05-13T11:52:31.115Z,36.69
2019-05-13T11:53:34.572Z,36.39
2019-05-13T11:54:42.237Z,36.90
2019-05-13T11:55:43.004Z,37.10
2019-05-13T11:57:05.522Z,37.40
2019-05-13T11:58:04.856Z,36.39
2019-05-13T11:59:05.325Z,36.69
2019-05-13T12:00:05.890Z,36.49
2019-05-13T12:01:06.357Z,36.88
2019-05-13T12:02:32.708Z,34.86
2019-05-13T12:03:33.341Z,35.75
2019-05-13T12:05:04.124Z,35.35
2019-05-13T12:06:04.674Z,34.72
2019-05-13T12:07:05.175Z,34.92
2019-05-13T12:08:05.618Z,33.19
2019-05-13T12:09:08.161Z,32.39
2019-05-13T12:10:08.612Z,31.96
2019-05-13T12:11:10.392Z,31.45
2019-05-13T12:12:14.362Z,31.63
2019-05-13T12:13:23.296Z,30.90
2019-05-13T12:14:43.550Z,31.19
2019-05-13T12:15:46.803Z,30.35
2019-05-13T12:16:46.430Z,31.03
2019-05-13T12:17:53.903Z,28.91
2019-05-13T12:18:54.340Z,29.48
2019-05-13T12:19:56.920Z,30.67
2019-05-13T12:20:57.354Z,28.15
2019-05-13T12:22:02.730Z,27.03
2019-05-13T12:23:03.698Z,27.82
2019-05-13T12:24:10.330Z,26.91
2019-05-13T12:25:13.860Z,27.70
2019-05-13T12:26:33.249Z,27.59
2019-05-13T12:27:33.899Z,27.58
2019-05-13T12:28:42.905Z,28.67
2019-05-13T12:29:43.384Z,26.77
2019-05-13T12:30:43.874Z,27.15
2019-05-13T12:31:44.358Z,27.56
2019-05-13T12:32:45.187Z,26.86
2019-05-13T12:33:45.664Z,26.15
2019-05-13T12:34:46.524Z,26.64
2019-05-13T12:35:46.982Z,26.75
2019-05-13T12:36:48.487Z,27.24
2019-05-13T12:37:48.935Z,27.74
2019-05-13T12:40:04.880Z,28.24
2019-05-13T12:41:05.746Z,27.34
2019-05-13T12:42:06.219Z,25.65
2019-05-13T12:43:06.957Z,24.35
2019-05-13T12:44:07.394Z,23.74
2019-05-13T12:45:17.466Z,24.54
2019-05-13T12:46:17.964Z,26.03
2019-05-13T12:47:27.466Z,25.63
2019-05-13T12:48:27.907Z,24.54
2019-05-13T12:49:33.617Z,25.62
2019-05-13T12:50:35.863Z,24.92
2019-05-13T12:51:36.400Z,24.52
2019-05-13T12:52:36.879Z,24.51
2019-05-13T12:53:43.213Z,24.41
2019-05-13T12:54:44.116Z,25.71
2019-05-13T12:55:53.771Z,25.61
2019-05-13T12:56:56.803Z,26.10
2019-05-13T12:58:03.883Z,26.90
2019-05-13T12:59:04.326Z,25.79
2019-05-13T13:00:04.823Z,23.60
2019-05-13T13:01:05.280Z,24.30
2019-05-13T13:02:14.479Z,22.91
2019-05-13T13:03:14.916Z,23.60
2019-05-13T13:04:17.451Z,23.90
2019-05-13T13:05:20.674Z,23.28
2019-05-13T13:06:32.452Z,22.19
2019-05-13T13:07:37.542Z,21.09
2019-05-13T13:08:43.730Z,21.49
2019-05-13T13:09:43.804Z,22.09
2019-05-13T13:10:47.427Z,22.49
2019-05-13T13:11:48.110Z,22.59
2019-05-13T13:12:57.443Z,23.38
2019-05-13T13:14:00.007Z,21.19
2019-05-13T13:16:12.611Z,21.79
2019-05-13T13:17:14.282Z,22.89
2019-05-13T13:18:15.450Z,22.97
2019-05-13T13:19:22.973Z,23.78
2019-05-13T13:20:24.175Z,23.98
2019-05-13T13:21:43.410Z,23.78
2019-05-13T13:22:43.850Z,23.58